Time,TemperatureF,DewpointF,PressureIn,WindDirection,WindDirectionDegrees,WindSpeedMPH,WindSpeedGustMPH,Humidity,HourlyPrecipIn,Conditions,Clouds,dailyrainin,SolarRadiationWatts/m^2,SoftwareType,DateUTC
2013-02-03 00:00:00,36.0,34.4,30.19,West,269,15.0,15.0,94,0.01,RA,,0.01,0.0,WeatherDisplay:10.37,2013-02-03 05:00:00,
2013-02-03 00:02:00,36.1,34.5,30.18,West,264,11.5,11.5,94,0.02,RA,,0.01,0.0,WeatherDisplay:10.37,2013-02-03 05:02:00,
2013-02-03 00:07:00,36.0,34.4,30.18,West,271,11.5,11.5,94,0.02,RA,,0.01,0.0,WeatherDisplay:10.37,2013-02-03 05:07:00,
2013-02-03 00:12:00,36.0,34.4,30.18,West,280,12.7,12.7,94,0.02,,,0.01,0.0,WeatherDisplay:10.37,2013-02-03 05:12:00,
2013-02-03 00:17:00,36.0,34.4,30.18,SW,232,11.5,11.5,94,0.02,CLR,,0.01,0.0,WeatherDisplay:10.37,2013-02-03 05:17:00,
2013-02-03 00:22:00,36.0,34.4,30.18,West,265,12.7,12.7,94,0.02,CLR,,0.01,0.0,WeatherDisplay:10.37,2013-02-03 05:22:00,
2013-02-03 00:27:00,36.0,34.4,30.18,West,263,15.0,15.0,94,0.02,CLR,,0.01,0.0,WeatherDisplay:10.37,2013-02-03 05:27:00,
2013-02-03 00:32:00,36.1,34.5,30.18,WNW,283,17.3,17.3,94,0.02,CLR,,0.01,0.0,WeatherDisplay:10.37,2013-02-03 05:32:00,
2013-02-03 00:37:00,36.1,34.5,30.18,West,280,18.4,18.4,94,0.04,RA,,0.02,0.0,WeatherDisplay:10.37,2013-02-03 05:37:00,
2013-02-03 00:42:00,36.2,34.4,30.18,WNW,298,15.0,15.0,93,0.02,RA,,0.02,0.0,WeatherDisplay:10.37,2013-02-03 05:42:00,
2013-02-03 00:47:00,36.3,34.2,30.18,NNW,327,19.6,19.6,92,0.02,CLR,,0.02,0.0,WeatherDisplay:10.37,2013-02-03 05:47:00,
2013-02-03 00:52:00,36.3,33.9,30.18,WNW,301,10.4,10.4,91,0.02,CLR,,0.02,0.0,WeatherDisplay:10.37,2013-02-03 05:52:00,
2013-02-03 00:57:00,36.3,33.6,30.18,WNW,296,11.5,11.5,90,0.02,CLR,,0.02,0.0,WeatherDisplay:10.37,2013-02-03 05:57:00,
2013-02-03 01:02:00,36.2,33.5,30.18,WNW,294,11.5,11.5,90,0.02,RA,,0.04,0.0,WeatherDisplay:10.37,2013-02-03 06:02:00,
2013-02-03 01:07:00,36.1,33.5,30.18,West,278,11.5,11.5,90,0.02,RA,,0.04,0.0,WeatherDisplay:10.37,2013-02-03 06:07:00,
2013-02-03 01:12:00,36.0,33.4,30.18,West,279,8.1,8.1,90,0.02,CLR,,0.04,0.0,WeatherDisplay:10.37,2013-02-03 06:12:00,
2013-02-03 01:17:00,36.0,33.4,30.17,WNW,296,3.5,3.5,90,0.02,CLR,,0.04,0.0,WeatherDisplay:10.37,2013-02-03 06:17:00,
2013-02-03 01:22:00,35.9,33.3,30.17,NW,311,8.1,8.1,90,0.02,CLR,,0.04,0.0,WeatherDisplay:10.37,2013-02-03 06:22:00,
2013-02-03 01:27:00,35.7,32.8,30.17,NW,306,4.6,4.6,89,0.02,CLR,,0.04,0.0,WeatherDisplay:10.37,2013-02-03 06:27:00,
2013-02-03 01:32:00,35.6,32.7,30.17,NW,306,4.6,4.6,89,0.02,CLR,,0.04,0.0,WeatherDisplay:10.37,2013-02-03 06:32:00,
2013-02-03 01:37:00,35.3,32.7,30.17,NW,304,6.9,6.9,90,0.01,CLR,,0.04,0.0,WeatherDisplay:10.37,2013-02-03 06:37:00,
2013-02-03 01:42:00,35.1,32.5,30.17,WNW,298,9.2,9.2,90,0.01,CLR,,0.04,0.0,WeatherDisplay:10.37,2013-02-03 06:42:00,
2013-02-03 01:47:00,34.9,32.3,30.17,West,267,6.9,6.9,90,0.01,CLR,,0.04,0.0,WeatherDisplay:10.37,2013-02-03 06:47:00,
2013-02-03 01:52:00,34.7,32.3,30.17,West,271,9.2,9.2,91,0.01,CLR,,0.04,0.0,WeatherDisplay:10.37,2013-02-03 06:52:00,
2013-02-03 01:57:00,34.6,32.2,30.17,WNW,293,11.5,11.5,91,0.01,CLR,,0.04,0.0,WeatherDisplay:10.37,2013-02-03 06:57:00,
2013-02-03 02:02:00,34.7,32.3,30.17,WNW,286,12.7,12.7,91,0.00,CLR,,0.04,0.0,WeatherDisplay:10.37,2013-02-03 07:02:00,
2013-02-03 02:07:00,34.7,32.3,30.17,WNW,292,5.0,5.0,91,0.00,CLR,,0.04,0.0,WeatherDisplay:10.37,2013-02-03 07:07:00,
2013-02-03 02:12:00,34.6,32.2,30.16,WNW,303,9.2,9.2,91,0.00,CLR,,0.04,0.0,WeatherDisplay:10.37,2013-02-03 07:12:00,
2013-02-03 02:17:00,34.6,32.2,30.16,WNW,286,12.7,12.7,91,0.00,CLR,,0.04,0.0,WeatherDisplay:10.37,2013-02-03 07:17:00,
2013-02-03 02:22:00,34.5,32.1,30.16,WNW,296,12.7,12.7,91,0.00,CLR,,0.04,0.0,WeatherDisplay:10.37,2013-02-03 07:22:00,
2013-02-03 02:27:00,34.7,32.3,30.16,NW,308,11.5,11.5,91,0.00,CLR,,0.04,0.0,WeatherDisplay:10.37,2013-02-03 07:27:00,
2013-02-03 02:32:00,34.7,32.1,30.16,NW,304,11.5,11.5,90,0.00,CLR,,0.04,0.0,WeatherDisplay:10.37,2013-02-03 07:32:00,
2013-02-03 02:37:00,34.9,32.0,30.16,WNW,297,16.1,16.1,89,0.00,CLR,,0.04,0.0,WeatherDisplay:10.37,2013-02-03 07:37:00,
2013-02-03 02:42:00,35.0,32.1,30.16,NW,306,16.1,16.1,89,0.00,CLR,,0.04,0.0,WeatherDisplay:10.37,2013-02-03 07:42:00,
2013-02-03 02:47:00,35.1,31.9,30.15,WNW,300,11.5,11.5,88,0.00,CLR,,0.04,0.0,WeatherDisplay:10.37,2013-02-03 07:47:00,
2013-02-03 02:52:00,35.1,31.9,30.15,WNW,295,10.4,10.4,88,0.00,CLR,,0.04,0.0,WeatherDisplay:10.37,2013-02-03 07:52:00,
2013-02-03 02:57:00,34.9,31.7,30.15,WNW,298,12.7,12.7,88,0.00,CLR,,0.04,0.0,WeatherDisplay:10.37,2013-02-03 07:57:00,
2013-02-03 03:02:00,34.8,31.6,30.15,WNW,300,16.1,16.1,88,0.00,CLR,,0.04,0.0,WeatherDisplay:10.37,2013-02-03 08:02:00,
2013-02-03 03:07:00,34.5,31.6,30.15,WNW,296,11.5,11.5,89,0.00,CLR,,0.04,0.0,WeatherDisplay:10.37,2013-02-03 08:07:00,
2013-02-03 03:12:00,34.4,31.5,30.15,NW,315,11.5,11.5,89,0.00,CLR,,0.04,0.0,WeatherDisplay:10.37,2013-02-03 08:12:00,
2013-02-03 03:17:00,34.4,31.5,30.15,NNW,327,5.8,5.8,89,0.00,CLR,,0.04,0.0,WeatherDisplay:10.37,2013-02-03 08:17:00,
2013-02-03 03:22:00,34.4,31.5,30.15,NW,310,11.5,11.5,89,0.00,CLR,,0.04,0.0,WeatherDisplay:10.37,2013-02-03 08:22:00,
2013-02-03 03:27:00,34.4,31.5,30.15,NW,319,13.8,13.8,89,0.00,CLR,,0.04,0.0,WeatherDisplay:10.37,2013-02-03 08:27:00,
2013-02-03 03:32:00,34.4,31.5,30.15,WNW,300,10.4,10.4,89,0.00,CLR,,0.04,0.0,WeatherDisplay:10.37,2013-02-03 08:32:00,
2013-02-03 03:37:00,34.3,31.4,30.15,NW,312,11.5,11.5,89,0.00,CLR,,0.04,0.0,WeatherDisplay:10.37,2013-02-03 08:37:00,
2013-02-03 03:42:00,34.3,31.4,30.15,NW,320,11.5,11.5,89,0.00,CLR,,0.04,0.0,WeatherDisplay:10.37,2013-02-03 08:42:00,
2013-02-03 03:47:00,34.3,31.4,30.15,WNW,300,14.0,14.0,89,0.00,CLR,,0.04,0.0,WeatherDisplay:10.37,2013-02-03 08:47:00,
2013-02-03 03:52:00,34.3,31.4,30.15,NW,318,12.7,12.7,89,0.00,CLR,,0.04,0.0,WeatherDisplay:10.37,2013-02-03 08:52:00,
2013-02-03 03:57:00,34.4,31.2,30.14,NW,311,9.2,9.2,88,0.00,CLR,,0.04,0.0,WeatherDisplay:10.37,2013-02-03 08:57:00,
2013-02-03 04:02:00,34.4,31.2,30.14,NW,321,15.0,15.0,88,0.00,CLR,,0.04,0.0,WeatherDisplay:10.37,2013-02-03 09:02:00,
2013-02-03 04:07:00,34.5,31.3,30.14,NW,314,13.0,13.0,88,0.00,CLR,,0.04,0.0,WeatherDisplay:10.37,2013-02-03 09:07:00,
2013-02-03 04:12:00,34.6,31.1,30.14,NW,312,18.4,18.4,87,0.00,CLR,,0.04,0.0,WeatherDisplay:10.37,2013-02-03 09:12:00,
2013-02-03 04:17:00,34.5,31.0,30.14,NNW,334,13.8,13.8,87,0.00,CLR,,0.04,0.0,WeatherDisplay:10.37,2013-02-03 09:17:00,
2013-02-03 04:22:00,34.4,30.9,30.14,NW,306,16.1,16.1,87,0.00,CLR,,0.04,0.0,WeatherDisplay:10.37,2013-02-03 09:22:00,
2013-02-03 04:27:00,34.4,30.9,30.14,NW,317,11.5,11.5,87,0.00,CLR,,0.04,0.0,WeatherDisplay:10.37,2013-02-03 09:27:00,
2013-02-03 04:32:00,34.2,30.7,30.14,NW,315,11.5,11.5,87,0.00,CLR,,0.04,0.0,WeatherDisplay:10.37,2013-02-03 09:32:00,
2013-02-03 04:37:00,34.2,30.7,30.14,WNW,296,13.0,13.0,87,0.00,CLR,,0.04,0.0,WeatherDisplay:10.37,2013-02-03 09:37:00,
2013-02-03 04:42:00,34.1,30.6,30.14,WNW,292,16.1,16.1,87,0.00,CLR,,0.04,0.0,WeatherDisplay:10.37,2013-02-03 09:42:00,
2013-02-03 04:47:00,33.9,30.7,30.13,WNW,286,11.5,11.5,88,0.00,CLR,,0.04,0.0,WeatherDisplay:10.37,2013-02-03 09:47:00,
2013-02-03 04:52:00,33.8,30.6,30.13,WNW,284,12.7,12.7,88,0.00,CLR,,0.04,0.0,WeatherDisplay:10.37,2013-02-03 09:52:00,
2013-02-03 04:57:00,33.5,30.3,30.13,WNW,294,12.7,12.7,88,0.00,CLR,,0.04,0.0,WeatherDisplay:10.37,2013-02-03 09:57:00,
2013-02-03 05:02:00,33.3,30.4,30.13,WNW,288,12.7,12.7,89,0.00,CLR,,0.04,0.0,WeatherDisplay:10.37,2013-02-03 10:02:00,
2013-02-03 05:07:00,33.2,30.3,30.13,WNW,302,17.3,17.3,89,0.00,CLR,,0.04,0.0,WeatherDisplay:10.37,2013-02-03 10:07:00,
2013-02-03 05:12:00,32.8,30.2,30.13,WNW,295,12.7,12.7,90,0.00,CLR,,0.04,0.0,WeatherDisplay:10.37,2013-02-03 10:12:00,
2013-02-03 05:17:00,32.5,30.2,30.13,WNW,284,12.7,12.7,91,0.00,CLR,,0.04,0.0,WeatherDisplay:10.37,2013-02-03 10:17:00,
2013-02-03 05:22:00,32.3,30.0,30.13,West,279,9.2,9.2,91,0.00,CLR,,0.04,0.0,WeatherDisplay:10.37,2013-02-03 10:22:00,
2013-02-03 05:27:00,32.1,30.0,30.14,WNW,289,11.5,11.5,92,0.00,CLR,,0.04,0.0,WeatherDisplay:10.37,2013-02-03 10:27:00,
2013-02-03 05:32:00,32.1,30.0,30.14,West,273,11.5,11.5,92,0.00,CLR,,0.04,0.0,WeatherDisplay:10.37,2013-02-03 10:32:00,
2013-02-03 05:37:00,32.1,30.0,30.14,West,273,12.7,12.7,92,0.00,CLR,,0.04,0.0,WeatherDisplay:10.37,2013-02-03 10:37:00,
2013-02-03 05:42:00,32.2,30.1,30.14,NW,304,12.7,12.7,92,0.00,CLR,,0.04,0.0,WeatherDisplay:10.37,2013-02-03 10:42:00,
2013-02-03 05:47:00,32.3,30.2,30.14,West,280,15.0,15.0,92,0.00,CLR,,0.04,0.0,WeatherDisplay:10.37,2013-02-03 10:47:00,
2013-02-03 05:52:00,32.2,30.1,30.14,West,277,11.5,11.5,92,0.00,CLR,,0.04,0.0,WeatherDisplay:10.37,2013-02-03 10:52:00,
2013-02-03 05:57:00,32.0,29.9,30.14,West,274,10.4,10.4,92,0.00,CLR,,0.04,0.0,WeatherDisplay:10.37,2013-02-03 10:57:00,
2013-02-03 06:02:00,31.8,29.7,30.14,WNW,283,13.8,13.8,92,0.00,CLR,,0.04,0.0,WeatherDisplay:10.37,2013-02-03 11:02:00,
2013-02-03 06:07:00,31.8,30.0,30.14,West,270,12.7,12.7,93,0.00,CLR,,0.04,0.0,WeatherDisplay:10.37,2013-02-03 11:07:00,
2013-02-03 06:12:00,32.0,30.2,30.14,West,270,12.7,12.7,93,0.00,CLR,,0.04,0.0,WeatherDisplay:10.37,2013-02-03 11:12:00,
2013-02-03 06:17:00,32.2,30.4,30.14,West,273,13.8,13.8,93,0.00,CLR,,0.04,0.0,WeatherDisplay:10.37,2013-02-03 11:17:00,
2013-02-03 06:22:00,32.4,30.6,30.14,WNW,282,16.1,16.1,93,0.00,CLR,,0.04,0.0,WeatherDisplay:10.37,2013-02-03 11:22:00,
2013-02-03 06:27:00,32.6,30.8,30.14,West,269,17.3,17.3,93,0.00,CLR,,0.04,0.0,WeatherDisplay:10.37,2013-02-03 11:27:00,
2013-02-03 06:32:00,32.9,31.1,30.14,West,266,13.8,13.8,93,0.00,CLR,,0.04,0.0,WeatherDisplay:10.37,2013-02-03 11:32:00,
2013-02-03 06:37:00,32.9,30.8,30.12,WNW,284,11.5,11.5,92,0.00,CLR,,0.04,0.0,WeatherDisplay:10.37,2013-02-03 11:37:00,
2013-02-03 06:42:00,32.8,30.7,30.12,WNW,290,11.5,11.5,92,0.00,CLR,,0.04,0.0,WeatherDisplay:10.37,2013-02-03 11:42:00,
2013-02-03 06:47:00,32.5,30.4,30.13,WNW,286,15.0,15.0,92,0.00,CLR,,0.04,0.0,WeatherDisplay:10.37,2013-02-03 11:47:00,
2013-02-03 06:52:00,32.4,30.6,30.13,WNW,292,11.5,11.5,93,0.00,CLR,,0.04,0.0,WeatherDisplay:10.37,2013-02-03 11:52:00,
2013-02-03 06:57:00,32.4,30.6,30.13,WNW,286,10.4,10.4,93,0.00,CLR,,0.04,0.0,WeatherDisplay:10.37,2013-02-03 11:57:00,
2013-02-03 07:02:00,32.2,30.4,30.13,WNW,284,11.5,11.5,93,0.00,CLR,,0.04,0.0,WeatherDisplay:10.37,2013-02-03 12:02:00,
2013-02-03 07:07:00,32.0,30.2,30.13,WNW,284,11.5,11.5,93,0.00,CLR,,0.04,0.0,WeatherDisplay:10.37,2013-02-03 12:07:00,
2013-02-03 07:12:00,31.8,30.0,30.12,WNW,283,10.4,10.4,93,0.00,CLR,,0.04,0.0,WeatherDisplay:10.37,2013-02-03 12:12:00,
2013-02-03 07:17:00,31.5,29.7,30.12,West,267,11.5,11.5,93,0.00,CLR,,0.04,0.0,WeatherDisplay:10.37,2013-02-03 12:17:00,
2013-02-03 07:22:00,31.5,30.0,30.13,West,267,10.4,10.4,94,0.00,CLR,,0.04,0.0,WeatherDisplay:10.37,2013-02-03 12:22:00,
2013-02-03 07:27:00,31.5,30.0,30.12,West,267,6.9,6.9,94,0.00,CLR,,0.04,0.0,WeatherDisplay:10.37,2013-02-03 12:27:00,
2013-02-03 07:32:00,31.3,29.8,30.13,West,265,11.5,11.5,94,0.00,CLR,,0.04,0.0,WeatherDisplay:10.37,2013-02-03 12:32:00,
2013-02-03 07:37:00,31.2,29.7,30.12,WSW,258,11.5,11.5,94,0.00,CLR,,0.04,5.0,WeatherDisplay:10.37,2013-02-03 12:37:00,
2013-02-03 07:42:00,31.1,29.8,30.13,West,259,9.2,9.2,95,0.00,CLR,,0.04,9.0,WeatherDisplay:10.37,2013-02-03 12:42:00,
2013-02-03 07:47:00,31.2,29.7,30.12,WSW,257,10.4,10.4,94,0.00,CLR,,0.04,11.0,WeatherDisplay:10.37,2013-02-03 12:47:00,
2013-02-03 07:52:00,31.2,29.9,30.13,West,259,10.4,10.4,95,0.00,CLR,,0.04,14.0,WeatherDisplay:10.37,2013-02-03 12:52:00,
2013-02-03 07:57:00,31.2,29.9,30.13,West,259,9.0,9.0,95,0.00,CLR,,0.04,18.0,WeatherDisplay:10.37,2013-02-03 12:57:00,
2013-02-03 08:02:00,31.2,29.9,30.13,WSW,255,11.5,11.5,95,0.00,CLR,,0.04,23.0,WeatherDisplay:10.37,2013-02-03 13:02:00,
2013-02-03 08:07:00,31.3,30.0,30.13,WSW,252,10.4,10.4,95,0.00,CLR,,0.04,35.0,WeatherDisplay:10.37,2013-02-03 13:07:00,
2013-02-03 08:12:00,31.5,30.2,30.13,WSW,251,11.5,11.5,95,0.00,CLR,,0.04,70.0,WeatherDisplay:10.37,2013-02-03 13:12:00,
2013-02-03 08:17:00,31.8,30.5,30.14,WSW,253,11.5,11.5,95,0.00,CLR,,0.04,63.0,WeatherDisplay:10.37,2013-02-03 13:17:00,
2013-02-03 08:22:00,32.1,31.1,30.14,WSW,255,11.5,11.5,96,0.00,CLR,,0.04,84.0,WeatherDisplay:10.37,2013-02-03 13:22:00,
2013-02-03 08:27:00,32.5,31.5,30.13,WSW,257,6.9,6.9,96,0.00,CLR,,0.04,62.0,WeatherDisplay:10.37,2013-02-03 13:27:00,
2013-02-03 08:32:00,32.7,31.4,30.13,WSW,256,7.0,7.0,95,0.00,CLR,,0.04,63.0,WeatherDisplay:10.37,2013-02-03 13:32:00,
2013-02-03 08:37:00,32.9,31.6,30.14,WSW,255,11.5,11.5,95,0.00,CLR,,0.04,54.0,WeatherDisplay:10.37,2013-02-03 13:37:00,
2013-02-03 08:42:00,33.0,31.7,30.13,WSW,255,10.4,10.4,95,0.00,CLR,,0.04,76.0,WeatherDisplay:10.37,2013-02-03 13:42:00,
2013-02-03 08:47:00,33.2,31.9,30.13,WSW,255,8.1,8.1,95,0.00,CLR,,0.04,56.0,WeatherDisplay:10.37,2013-02-03 13:47:00,
2013-02-03 08:52:00,33.3,32.0,30.13,WSW,255,10.4,10.4,95,0.00,CLR,,0.04,104.0,WeatherDisplay:10.37,2013-02-03 13:52:00,
2013-02-03 08:57:00,33.5,32.2,30.13,WSW,250,10.4,10.4,95,0.00,CLR,,0.04,118.0,WeatherDisplay:10.37,2013-02-03 13:57:00,
2013-02-03 09:02:00,33.7,32.4,30.13,WSW,248,11.0,11.0,95,0.00,OVC,,0.04,46.0,WeatherDisplay:10.37,2013-02-03 14:02:00,
2013-02-03 09:07:00,33.7,32.2,30.13,SW,228,10.4,10.4,94,0.00,OVC,,0.04,90.0,WeatherDisplay:10.37,2013-02-03 14:07:00,
2013-02-03 09:12:00,33.8,32.3,30.13,SW,228,11.5,11.5,94,0.00,OVC,,0.04,148.0,WeatherDisplay:10.37,2013-02-03 14:12:00,
2013-02-03 09:17:00,34.0,32.5,30.12,SW,229,10.4,10.4,94,0.00,OVC,,0.04,113.0,WeatherDisplay:10.37,2013-02-03 14:17:00,
2013-02-03 09:22:00,34.2,32.7,30.12,SW,228,6.9,6.9,94,0.00,OVC,,0.04,62.0,WeatherDisplay:10.37,2013-02-03 14:22:00,
2013-02-03 09:27:00,34.3,32.8,30.12,SW,229,10.4,10.4,94,0.00,OVC,,0.04,60.0,WeatherDisplay:10.37,2013-02-03 14:27:00,
2013-02-03 09:32:00,34.4,32.9,30.12,SW,229,6.9,6.9,94,0.00,OVC,,0.04,72.0,WeatherDisplay:10.37,2013-02-03 14:32:00,
2013-02-03 09:37:00,34.7,33.2,30.12,West,263,11.5,11.5,94,0.00,OVC,,0.04,91.0,WeatherDisplay:10.37,2013-02-03 14:37:00,
2013-02-03 09:42:00,35.2,33.6,30.12,West,265,12.7,12.7,94,0.00,OVC,,0.04,155.0,WeatherDisplay:10.37,2013-02-03 14:42:00,
2013-02-03 09:47:00,35.8,34.0,30.12,West,275,11.5,11.5,93,0.00,OVC,,0.04,207.0,WeatherDisplay:10.37,2013-02-03 14:47:00,
2013-02-03 09:52:00,36.3,34.2,30.12,West,268,10.4,10.4,92,0.00,OVC,,0.04,149.0,WeatherDisplay:10.37,2013-02-03 14:52:00,
2013-02-03 09:57:00,36.6,34.2,30.11,West,264,15.0,15.0,91,0.00,OVC,,0.04,104.0,WeatherDisplay:10.37,2013-02-03 14:57:00,
2013-02-03 10:02:00,36.8,34.1,30.12,West,267,11.5,11.5,90,0.00,OVC,,0.04,102.0,WeatherDisplay:10.37,2013-02-03 15:02:00,
2013-02-03 10:07:00,37.0,34.3,30.12,West,261,12.0,12.0,90,0.00,OVC,,0.04,63.0,WeatherDisplay:10.37,2013-02-03 15:07:00,
2013-02-03 10:12:00,37.4,34.5,30.12,West,275,13.8,13.8,89,0.00,OVC,,0.04,58.0,WeatherDisplay:10.37,2013-02-03 15:12:00,
2013-02-03 10:17:00,37.9,34.9,30.11,West,266,15.0,15.0,89,0.01,RA,,0.05,53.0,WeatherDisplay:10.37,2013-02-03 15:17:00,
2013-02-03 10:22:00,38.2,35.0,30.12,West,265,15.0,15.0,88,0.01,RA,,0.05,51.0,WeatherDisplay:10.37,2013-02-03 15:22:00,
2013-02-03 10:27:00,38.7,35.2,30.11,West,271,13.8,13.8,87,0.01,OVC,,0.05,49.0,WeatherDisplay:10.37,2013-02-03 15:27:00,
2013-02-03 10:32:00,39.2,35.4,30.12,WNW,289,18.4,18.4,86,0.02,RA,,0.06,54.0,WeatherDisplay:10.37,2013-02-03 15:32:00,
2013-02-03 10:37:00,39.4,35.3,30.12,WNW,302,19.6,19.6,85,0.02,RA,,0.06,53.0,WeatherDisplay:10.37,2013-02-03 15:37:00,
2013-02-03 10:42:00,39.4,35.0,30.12,West,279,26.5,26.5,84,0.02,OVC,,0.06,60.0,WeatherDisplay:10.37,2013-02-03 15:42:00,
2013-02-03 10:47:00,39.2,34.8,30.12,WNW,295,27.6,27.6,84,0.04,RA,,0.07,455.0,WeatherDisplay:10.37,2013-02-03 15:47:00,
2013-02-03 10:52:00,39.0,34.6,30.12,WNW,295,23.0,23.0,84,0.05,RA,,0.08,461.0,WeatherDisplay:10.37,2013-02-03 15:52:00,
2013-02-03 10:57:00,38.9,34.8,30.12,WNW,289,29.9,29.9,85,0.05,RA,,0.08,469.0,WeatherDisplay:10.37,2013-02-03 15:57:00,
2013-02-03 11:02:00,38.6,34.8,30.12,NW,311,20.7,20.7,86,0.06,RA,,0.10,497.0,WeatherDisplay:10.37,2013-02-03 16:02:00,
2013-02-03 11:07:00,38.7,35.2,30.12,WNW,297,25.3,25.3,87,0.07,RA,,0.11,529.0,WeatherDisplay:10.37,2013-02-03 16:07:00,
2013-02-03 11:12:00,38.8,35.3,30.11,NW,313,23.0,23.0,87,0.08,RA,,0.12,522.0,WeatherDisplay:10.37,2013-02-03 16:12:00,
2013-02-03 11:17:00,38.9,35.4,30.11,West,276,16.1,16.1,87,0.08,RA,,0.13,536.0,WeatherDisplay:10.37,2013-02-03 16:17:00,
2013-02-03 11:22:00,39.3,35.5,30.11,NW,309,21.9,21.9,86,0.08,RA,,0.13,550.0,WeatherDisplay:10.37,2013-02-03 16:22:00,
2013-02-03 11:27:00,39.5,35.7,30.11,WNW,288,27.0,27.0,86,0.10,RA,,0.15,578.0,WeatherDisplay:10.37,2013-02-03 16:27:00,
2013-02-03 11:32:00,39.7,35.9,30.11,West,267,29.9,29.9,86,0.10,RA,,0.16,561.0,WeatherDisplay:10.37,2013-02-03 16:32:00,
2013-02-03 11:37:00,40.0,36.4,30.11,West,269,25.3,25.3,87,0.11,RA,,0.17,624.0,WeatherDisplay:10.37,2013-02-03 16:37:00,
2013-02-03 11:42:00,40.2,36.3,30.11,West,275,26.5,26.5,86,0.12,RA,,0.18,673.0,WeatherDisplay:10.37,2013-02-03 16:42:00,
2013-02-03 11:47:00,40.2,36.3,30.11,NW,306,16.1,16.1,86,0.11,RA,,0.18,696.0,WeatherDisplay:10.37,2013-02-03 16:47:00,
2013-02-03 11:52:00,40.1,36.0,30.11,NW,306,26.5,26.5,85,0.10,OVC,,0.18,643.0,WeatherDisplay:10.37,2013-02-03 16:52:00,
2013-02-03 11:57:00,40.1,36.0,30.10,WNW,289,19.6,19.6,85,0.10,OVC,,0.18,621.0,WeatherDisplay:10.37,2013-02-03 16:57:00,
2013-02-03 12:02:00,40.1,36.0,30.10,WNW,290,25.0,25.0,85,0.08,OVC,,0.18,91.0,WeatherDisplay:10.37,2013-02-03 17:02:00,
2013-02-03 12:07:00,40.3,36.4,30.10,West,277,17.3,17.3,86,0.08,RA,,0.19,712.0,WeatherDisplay:10.37,2013-02-03 17:07:00,
2013-02-03 12:12:00,40.8,36.6,30.10,NW,309,19.6,19.6,85,0.07,RA,,0.19,631.0,WeatherDisplay:10.37,2013-02-03 17:12:00,
2013-02-03 12:17:00,41.0,36.8,30.10,NW,308,20.7,20.7,85,0.06,OVC,,0.19,636.0,WeatherDisplay:10.37,2013-02-03 17:17:00,
2013-02-03 12:22:00,41.1,36.9,30.10,NW,305,25.3,25.3,85,0.06,OVC,,0.19,645.0,WeatherDisplay:10.37,2013-02-03 17:22:00,
2013-02-03 12:27:00,41.3,36.8,30.10,WNW,287,16.1,16.1,84,0.05,OVC,,0.19,636.0,WeatherDisplay:10.37,2013-02-03 17:27:00,
2013-02-03 12:32:00,41.8,37.0,30.09,WNW,290,21.9,21.9,83,0.04,OVC,,0.19,654.0,WeatherDisplay:10.37,2013-02-03 17:32:00,
2013-02-03 12:37:00,41.7,36.3,30.09,NW,316,23.0,23.0,81,0.02,CLR,,0.19,654.0,WeatherDisplay:10.37,2013-02-03 17:37:00,
2013-02-03 12:42:00,42.0,36.9,30.09,WNW,289,21.9,21.9,82,0.01,CLR,,0.19,664.0,WeatherDisplay:10.37,2013-02-03 17:42:00,
2013-02-03 12:47:00,42.4,37.6,30.09,WNW,301,19.6,21.1,83,0.01,CLR,,0.19,654.0,WeatherDisplay:10.37,2013-02-03 17:47:00,
2013-02-03 12:52:00,42.5,36.8,30.09,WNW,293,21.9,21.9,80,0.01,CLR,,0.19,635.0,WeatherDisplay:10.37,2013-02-03 17:52:00,
2013-02-03 12:57:00,42.6,36.5,30.09,WNW,296,21.9,21.9,79,0.01,CLR,,0.19,642.0,WeatherDisplay:10.37,2013-02-03 17:57:00,
2013-02-03 13:02:00,42.7,36.6,30.09,WNW,301,23.0,23.0,79,0.01,CLR,,0.19,666.0,WeatherDisplay:10.37,2013-02-03 18:02:00,
2013-02-03 13:07:00,43.0,36.9,30.09,WNW,290,21.9,21.9,79,0.00,CLR,,0.19,763.0,WeatherDisplay:10.37,2013-02-03 18:07:00,
2013-02-03 13:12:00,43.1,37.3,30.09,WNW,296,20.7,20.7,80,0.00,CLR,,0.19,758.0,WeatherDisplay:10.37,2013-02-03 18:12:00,
2013-02-03 13:17:00,43.1,36.7,30.08,NNW,334,20.7,20.7,78,0.00,CLR,,0.19,707.0,WeatherDisplay:10.37,2013-02-03 18:17:00,
2013-02-03 13:22:00,43.4,37.0,30.08,WNW,291,18.4,18.4,78,0.00,CLR,,0.19,679.0,WeatherDisplay:10.37,2013-02-03 18:22:00,
2013-02-03 13:27:00,43.7,37.3,30.08,WNW,302,20.7,20.7,78,0.00,CLR,,0.19,715.0,WeatherDisplay:10.37,2013-02-03 18:27:00,
2013-02-03 13:32:00,43.7,36.6,30.08,WSW,257,19.6,19.6,76,0.00,CLR,,0.19,694.0,WeatherDisplay:10.37,2013-02-03 18:32:00,
2013-02-03 13:37:00,43.4,36.7,30.07,West,275,24.2,24.2,77,0.00,CLR,,0.19,652.0,WeatherDisplay:10.37,2013-02-03 18:37:00,
2013-02-03 13:42:00,43.6,36.5,30.07,NW,311,19.6,19.6,76,0.00,CLR,,0.19,621.0,WeatherDisplay:10.37,2013-02-03 18:42:00,
2013-02-03 13:47:00,43.8,37.4,30.07,NW,320,20.0,20.0,78,0.00,CLR,,0.19,613.0,WeatherDisplay:10.37,2013-02-03 18:47:00,
2013-02-03 13:52:00,43.9,36.5,30.06,WNW,296,19.6,19.6,75,0.00,BKN,,0.19,79.0,WeatherDisplay:10.37,2013-02-03 18:52:00,
2013-02-03 13:57:00,44.0,36.9,30.07,WNW,284,20.7,20.7,76,0.00,BKN,,0.19,98.0,WeatherDisplay:10.37,2013-02-03 18:57:00,
2013-02-03 14:02:00,44.8,38.4,30.06,WNW,284,27.6,27.6,78,0.00,CLR,,0.19,617.0,WeatherDisplay:10.37,2013-02-03 19:02:00,
2013-02-03 14:07:00,45.0,36.5,30.07,WNW,284,27.6,27.6,72,0.00,CLR,,0.19,626.0,WeatherDisplay:10.37,2013-02-03 19:07:00,
2013-02-03 14:12:00,44.8,36.3,30.07,WNW,294,21.9,21.9,72,0.00,CLR,,0.19,529.0,WeatherDisplay:10.37,2013-02-03 19:12:00,
2013-02-03 14:17:00,44.9,36.4,30.07,NW,325,18.4,18.4,72,0.00,CLR,,0.19,628.0,WeatherDisplay:10.37,2013-02-03 19:17:00,
2013-02-03 14:22:00,44.9,36.4,30.06,West,281,20.7,20.7,72,0.00,CLR,,0.19,679.0,WeatherDisplay:10.37,2013-02-03 19:22:00,
2013-02-03 14:27:00,45.2,36.7,30.06,West,261,23.0,23.0,72,0.00,CLR,,0.19,91.0,WeatherDisplay:10.37,2013-02-03 19:27:00,
2013-02-03 14:32:00,44.8,35.2,30.06,WNW,286,29.9,29.9,69,0.00,BKN,,0.19,91.0,WeatherDisplay:10.37,2013-02-03 19:32:00,
2013-02-03 14:37:00,44.9,35.7,30.06,NW,317,27.6,27.6,70,0.00,CLR,,0.19,570.0,WeatherDisplay:10.37,2013-02-03 19:37:00,
2013-02-03 14:42:00,45.2,35.6,30.06,WNW,300,21.9,21.9,69,0.00,CLR,,0.19,506.0,WeatherDisplay:10.37,2013-02-03 19:42:00,
2013-02-03 14:47:00,45.6,36.0,30.06,West,281,20.7,20.7,69,0.00,BKN,,0.19,139.0,WeatherDisplay:10.37,2013-02-03 19:47:00,
2013-02-03 14:52:00,45.8,35.8,30.06,NW,307,18.4,18.4,68,0.00,CLR,,0.19,545.0,WeatherDisplay:10.37,2013-02-03 19:52:00,
2013-02-03 14:57:00,46.1,35.7,30.06,WNW,285,17.3,17.3,67,0.00,CLR,,0.19,526.0,WeatherDisplay:10.37,2013-02-03 19:57:00,
2013-02-03 15:02:00,46.2,35.8,30.06,WNW,290,23.0,23.0,67,0.00,CLR,,0.19,529.0,WeatherDisplay:10.37,2013-02-03 20:02:00,
2013-02-03 15:07:00,46.5,35.4,30.06,WNW,283,19.6,19.6,65,0.00,CLR,,0.19,504.0,WeatherDisplay:10.37,2013-02-03 20:07:00,
2013-02-03 15:12:00,46.8,35.6,30.06,WNW,284,17.3,17.3,65,0.00,BKN,,0.19,174.0,WeatherDisplay:10.37,2013-02-03 20:12:00,
2013-02-03 15:17:00,47.1,36.3,30.06,NW,307,17.3,17.3,66,0.00,CLR,,0.19,483.0,WeatherDisplay:10.37,2013-02-03 20:17:00,
2013-02-03 15:22:00,47.3,36.1,30.06,WNW,290,18.4,18.4,65,0.00,CLR,,0.19,480.0,WeatherDisplay:10.37,2013-02-03 20:22:00,
2013-02-03 15:27:00,47.5,34.3,30.06,NW,318,25.3,25.3,60,0.00,CLR,,0.19,457.0,WeatherDisplay:10.37,2013-02-03 20:27:00,
2013-02-03 15:32:00,47.4,33.4,30.06,NW,304,21.9,21.9,58,0.00,CLR,,0.19,450.0,WeatherDisplay:10.37,2013-02-03 20:32:00,
2013-02-03 15:37:00,47.7,33.6,30.06,NNW,328,27.6,27.6,58,0.00,CLR,,0.19,431.0,WeatherDisplay:10.37,2013-02-03 20:37:00,
2013-02-03 15:42:00,47.6,33.5,30.06,NW,317,20.7,20.7,58,0.00,CLR,,0.19,415.0,WeatherDisplay:10.37,2013-02-03 20:42:00,
2013-02-03 15:47:00,47.8,34.2,30.05,WNW,302,11.5,11.5,59,0.00,FEW,,0.19,401.0,WeatherDisplay:10.37,2013-02-03 20:47:00,
2013-02-03 15:52:00,48.2,34.1,30.06,NW,313,19.6,19.6,58,0.00,FEW,,0.19,387.0,WeatherDisplay:10.37,2013-02-03 20:52:00,
2013-02-03 15:57:00,48.3,32.4,30.06,NW,321,19.6,19.6,54,0.00,FEW,,0.19,376.0,WeatherDisplay:10.37,2013-02-03 20:57:00,
2013-02-03 16:02:00,48.5,32.1,30.06,WNW,302,21.0,21.0,53,0.00,SCT,,0.19,362.0,WeatherDisplay:10.37,2013-02-03 21:02:00,
2013-02-03 16:07:00,48.6,31.8,30.06,NW,323,18.4,18.4,52,0.00,SCT,,0.19,350.0,WeatherDisplay:10.37,2013-02-03 21:07:00,
2013-02-03 16:12:00,48.2,30.4,30.07,WNW,290,17.3,17.3,50,0.00,SCT,,0.19,336.0,WeatherDisplay:10.37,2013-02-03 21:12:00,
2013-02-03 16:17:00,48.2,30.4,30.07,North,355,19.6,19.6,50,0.00,SCT,,0.19,318.0,WeatherDisplay:10.37,2013-02-03 21:17:00,
2013-02-03 16:22:00,48.3,30.5,30.07,NW,307,21.0,21.0,50,0.00,SCT,,0.19,304.0,WeatherDisplay:10.37,2013-02-03 21:22:00,
2013-02-03 16:27:00,48.1,30.3,30.07,West,280,19.6,19.6,50,0.00,SCT,,0.19,288.0,WeatherDisplay:10.37,2013-02-03 21:27:00,
2013-02-03 16:32:00,48.1,29.8,30.08,NW,317,25.3,25.3,49,0.00,BKN,,0.19,272.0,WeatherDisplay:10.37,2013-02-03 21:32:00,
2013-02-03 16:37:00,47.9,30.1,30.08,NNW,329,19.6,19.6,50,0.00,BKN,,0.19,257.0,WeatherDisplay:10.37,2013-02-03 21:37:00,
2013-02-03 16:42:00,48.1,30.3,30.08,NW,321,17.3,17.3,50,0.00,BKN,,0.19,244.0,WeatherDisplay:10.37,2013-02-03 21:42:00,
2013-02-03 16:47:00,48.2,30.9,30.08,WSW,250,23.0,23.0,51,0.00,BKN,,0.19,227.0,WeatherDisplay:10.37,2013-02-03 21:47:00,
2013-02-03 16:52:00,48.1,30.8,30.08,WNW,292,18.4,18.4,51,0.00,BKN,,0.19,213.0,WeatherDisplay:10.37,2013-02-03 21:52:00,
2013-02-03 16:57:00,47.9,30.1,30.08,WNW,296,19.6,19.6,50,0.00,BKN,,0.19,197.0,WeatherDisplay:10.37,2013-02-03 21:57:00,
2013-02-03 17:02:00,47.7,30.4,30.08,NW,309,16.1,16.1,51,0.00,BKN,,0.19,181.0,WeatherDisplay:10.37,2013-02-03 22:02:00,
2013-02-03 17:07:00,47.6,30.3,30.08,NW,315,16.1,16.1,51,0.00,BKN,,0.19,163.0,WeatherDisplay:10.37,2013-02-03 22:07:00,
2013-02-03 17:12:00,47.7,30.4,30.08,NNE,23,18.4,18.4,51,0.00,BKN,,0.19,149.0,WeatherDisplay:10.37,2013-02-03 22:12:00,
2013-02-03 17:17:00,47.6,30.3,30.08,NW,315,19.6,19.6,51,0.00,BKN,,0.19,139.0,WeatherDisplay:10.37,2013-02-03 22:17:00,
2013-02-03 17:22:00,47.3,30.1,30.08,WNW,289,23.0,23.0,51,0.00,BKN,,0.19,121.0,WeatherDisplay:10.37,2013-02-03 22:22:00,
2013-02-03 17:27:00,47.1,29.9,30.08,NW,325,13.8,13.8,51,0.00,BKN,,0.19,109.0,WeatherDisplay:10.37,2013-02-03 22:27:00,
2013-02-03 17:32:00,46.9,29.7,30.08,WNW,296,19.0,19.0,51,0.00,BKN,,0.19,91.0,WeatherDisplay:10.37,2013-02-03 22:32:00,
2013-02-03 17:37:00,46.8,29.6,30.08,NW,312,19.6,19.6,51,0.00,BKN,,0.19,74.0,WeatherDisplay:10.37,2013-02-03 22:37:00,
2013-02-03 17:42:00,46.6,28.9,30.08,WNW,289,19.6,19.6,50,0.00,BKN,,0.19,58.0,WeatherDisplay:10.37,2013-02-03 22:42:00,
2013-02-03 17:47:00,46.4,29.2,30.08,WNW,291,17.3,17.3,51,0.00,BKN,,0.19,44.0,WeatherDisplay:10.37,2013-02-03 22:47:00,
2013-02-03 17:52:00,46.1,29.0,30.09,WNW,292,11.5,11.5,51,0.00,CLR,,0.19,33.0,WeatherDisplay:10.37,2013-02-03 22:52:00,
2013-02-03 17:57:00,45.8,28.7,30.09,WNW,296,23.0,23.0,51,0.00,CLR,,0.19,14.0,WeatherDisplay:10.37,2013-02-03 22:57:00,
2013-02-03 18:02:00,45.4,28.3,30.09,WNW,302,15.0,15.0,51,0.00,CLR,,0.19,7.0,WeatherDisplay:10.37,2013-02-03 23:02:00,
2013-02-03 18:07:00,45.2,28.6,30.09,NW,323,15.0,15.0,52,0.00,CLR,,0.19,5.0,WeatherDisplay:10.37,2013-02-03 23:07:00,
2013-02-03 18:12:00,44.9,28.3,30.09,WNW,297,17.3,17.3,52,0.00,CLR,,0.19,0.0,WeatherDisplay:10.37,2013-02-03 23:12:00,
2013-02-03 18:17:00,44.7,28.6,30.09,WNW,298,21.9,21.9,53,0.00,CLR,,0.19,0.0,WeatherDisplay:10.37,2013-02-03 23:17:00,
2013-02-03 18:22:00,44.5,28.4,30.09,WNW,296,16.1,16.1,53,0.00,CLR,,0.19,0.0,WeatherDisplay:10.37,2013-02-03 23:22:00,
2013-02-03 18:27:00,44.4,28.8,30.09,NW,305,16.1,16.1,54,0.00,CLR,,0.19,0.0,WeatherDisplay:10.37,2013-02-03 23:27:00,
2013-02-03 18:32:00,44.2,28.6,30.10,WNW,303,15.0,15.0,54,0.00,CLR,,0.19,0.0,WeatherDisplay:10.37,2013-02-03 23:32:00,
2013-02-03 18:37:00,44.2,28.6,30.10,NW,321,24.2,24.2,54,0.00,CLR,,0.19,0.0,WeatherDisplay:10.37,2013-02-03 23:37:00,
2013-02-03 18:42:00,44.1,28.5,30.10,WNW,297,13.8,13.8,54,0.00,CLR,,0.19,0.0,WeatherDisplay:10.37,2013-02-03 23:42:00,
2013-02-03 18:47:00,44.0,28.9,30.10,NNW,328,16.1,16.1,55,0.00,CLR,,0.19,0.0,WeatherDisplay:10.37,2013-02-03 23:47:00,
2013-02-03 18:52:00,44.0,28.4,30.10,WNW,300,17.3,17.3,54,0.00,CLR,,0.19,0.0,WeatherDisplay:10.37,2013-02-03 23:52:00,
2013-02-03 18:57:00,43.9,28.8,30.10,NNW,338,13.8,13.8,55,0.00,CLR,,0.19,0.0,WeatherDisplay:10.37,2013-02-03 23:57:00,
2013-02-03 19:02:00,43.8,28.7,30.10,NNW,340,11.5,11.5,55,0.00,CLR,,0.19,0.0,WeatherDisplay:10.37,2013-02-04 00:02:00,
2013-02-03 19:07:00,43.8,28.7,30.11,NW,316,17.3,17.3,55,0.00,CLR,,0.19,0.0,WeatherDisplay:10.37,2013-02-04 00:07:00,
2013-02-03 19:12:00,43.8,28.7,30.11,NW,316,16.1,16.1,55,0.00,CLR,,0.19,0.0,WeatherDisplay:10.37,2013-02-04 00:12:00,
2013-02-03 19:17:00,43.9,28.8,30.12,NW,306,5.8,5.8,55,0.00,CLR,,0.19,0.0,WeatherDisplay:10.37,2013-02-04 00:17:00,
2013-02-03 19:22:00,43.7,28.6,30.12,WNW,295,3.5,3.5,55,0.00,CLR,,0.19,0.0,WeatherDisplay:10.37,2013-02-04 00:22:00,
2013-02-03 19:27:00,43.6,28.9,30.12,WNW,300,3.5,3.5,56,0.00,CLR,,0.19,0.0,WeatherDisplay:10.37,2013-02-04 00:27:00,
2013-02-03 19:32:00,43.5,29.3,30.12,WNW,300,3.5,3.5,57,0.00,CLR,,0.19,0.0,WeatherDisplay:10.37,2013-02-04 00:32:00,
2013-02-03 19:37:00,43.4,28.7,30.12,NW,321,6.9,6.9,56,0.00,CLR,,0.19,0.0,WeatherDisplay:10.37,2013-02-04 00:37:00,
2013-02-03 19:42:00,43.4,29.2,30.12,NW,315,11.5,11.5,57,0.00,CLR,,0.19,0.0,WeatherDisplay:10.37,2013-02-04 00:42:00,
2013-02-03 19:47:00,43.3,29.1,30.12,West,275,9.2,9.2,57,0.00,CLR,,0.19,0.0,WeatherDisplay:10.37,2013-02-04 00:47:00,
2013-02-03 19:52:00,43.0,29.2,30.13,West,274,15.0,15.0,58,0.00,CLR,,0.19,0.0,WeatherDisplay:10.37,2013-02-04 00:52:00,
2013-02-03 19:57:00,42.8,29.0,30.12,NW,304,11.5,11.5,58,0.00,CLR,,0.19,0.0,WeatherDisplay:10.37,2013-02-04 00:57:00,
2013-02-03 20:02:00,42.8,29.5,30.12,NW,320,5.8,5.8,59,0.00,CLR,,0.19,0.0,WeatherDisplay:10.37,2013-02-04 01:02:00,
2013-02-03 20:07:00,42.5,29.2,30.12,NW,322,11.5,11.5,59,0.00,CLR,,0.19,0.0,WeatherDisplay:10.37,2013-02-04 01:07:00,
2013-02-03 20:12:00,42.4,29.1,30.12,North,355,13.8,13.8,59,0.00,CLR,,0.19,0.0,WeatherDisplay:10.37,2013-02-04 01:12:00,
2013-02-03 20:17:00,42.4,29.1,30.12,NNW,328,10.4,10.4,59,0.00,CLR,,0.19,0.0,WeatherDisplay:10.37,2013-02-04 01:17:00,
2013-02-03 20:22:00,42.4,29.5,30.13,NNW,343,10.4,10.4,60,0.00,CLR,,0.19,0.0,WeatherDisplay:10.37,2013-02-04 01:22:00,
2013-02-03 20:27:00,42.1,28.8,30.13,NNW,343,5.8,5.8,59,0.00,CLR,,0.19,0.0,WeatherDisplay:10.37,2013-02-04 01:27:00,
2013-02-03 20:32:00,42.0,29.1,30.13,NE,37,9.2,9.2,60,0.00,CLR,,0.19,0.0,WeatherDisplay:10.37,2013-02-04 01:32:00,
2013-02-03 20:37:00,41.7,29.6,30.13,NNW,346,11.5,11.5,62,0.00,CLR,,0.19,0.0,WeatherDisplay:10.37,2013-02-04 01:37:00,
2013-02-03 20:42:00,41.5,29.4,30.13,NNE,30,10.4,10.4,62,0.00,CLR,,0.19,0.0,WeatherDisplay:10.37,2013-02-04 01:42:00,
2013-02-03 20:47:00,41.4,29.3,30.13,North,5,6.9,6.9,62,0.00,CLR,,0.19,0.0,WeatherDisplay:10.37,2013-02-04 01:47:00,
2013-02-03 20:52:00,41.3,29.6,30.13,North,5,5.0,5.0,63,0.00,CLR,,0.19,0.0,WeatherDisplay:10.37,2013-02-04 01:52:00,
2013-02-03 20:57:00,40.9,29.3,30.12,NE,55,9.2,9.2,63,0.00,CLR,,0.19,0.0,WeatherDisplay:10.37,2013-02-04 01:57:00,
2013-02-03 21:02:00,40.3,29.5,30.12,NE,35,4.6,4.6,65,0.00,CLR,,0.19,0.0,WeatherDisplay:10.37,2013-02-04 02:02:00,
2013-02-03 21:07:00,39.8,29.4,30.12,NE,42,6.9,6.9,66,0.00,CLR,,0.19,0.0,WeatherDisplay:10.37,2013-02-04 02:07:00,
2013-02-03 21:12:00,39.3,29.3,30.12,NE,55,4.6,4.6,67,0.00,CLR,,0.19,0.0,WeatherDisplay:10.37,2013-02-04 02:12:00,
2013-02-03 21:17:00,38.9,29.2,30.12,NE,51,6.9,6.9,68,0.00,CLR,,0.19,0.0,WeatherDisplay:10.37,2013-02-04 02:17:00,
2013-02-03 21:22:00,38.6,29.3,30.12,NE,52,5.0,5.0,69,0.00,CLR,,0.19,0.0,WeatherDisplay:10.37,2013-02-04 02:22:00,
2013-02-03 21:28:00,38.2,29.3,30.12,NE,56,0.0,0.0,70,0.00,CLR,,0.19,0.0,WeatherDisplay:10.37,2013-02-04 02:28:00,
2013-02-03 21:33:00,37.9,29.0,30.12,East,87,5.0,5.0,70,0.00,CLR,,0.19,0.0,WeatherDisplay:10.37,2013-02-04 02:33:00,
2013-02-03 21:38:00,37.6,29.0,30.12,East,81,5.8,5.8,71,0.00,CLR,,0.19,0.0,WeatherDisplay:10.37,2013-02-04 02:38:00,
2013-02-03 21:43:00,37.5,29.3,30.12,ENE,74,10.4,10.4,72,0.00,CLR,,0.19,0.0,WeatherDisplay:10.37,2013-02-04 02:43:00,
2013-02-03 21:48:00,37.5,29.3,30.13,ENE,69,3.5,3.5,72,0.00,CLR,,0.19,0.0,WeatherDisplay:10.37,2013-02-04 02:48:00,
2013-02-03 21:53:00,37.2,29.0,30.13,ENE,68,4.0,4.0,72,0.00,CLR,,0.19,0.0,WeatherDisplay:10.37,2013-02-04 02:53:00,
2013-02-03 21:58:00,36.7,28.9,30.13,ENE,65,5.8,5.8,73,0.00,CLR,,0.19,0.0,WeatherDisplay:10.37,2013-02-04 02:58:00,
2013-02-03 22:03:00,36.6,29.1,30.13,ENE,65,4.6,4.6,74,0.00,CLR,,0.19,0.0,WeatherDisplay:10.37,2013-02-04 03:03:00,
2013-02-03 22:08:00,36.7,29.2,30.14,ENE,59,6.9,6.9,74,0.00,CLR,,0.19,0.0,WeatherDisplay:10.37,2013-02-04 03:08:00,
2013-02-03 22:13:00,36.8,29.0,30.13,NNE,30,6.9,6.9,73,0.00,CLR,,0.19,0.0,WeatherDisplay:10.37,2013-02-04 03:13:00,
2013-02-03 22:18:00,37.2,29.3,30.13,NE,49,15.0,15.0,73,0.00,CLR,,0.19,0.0,WeatherDisplay:10.37,2013-02-04 03:18:00,
2013-02-03 22:23:00,37.7,29.1,30.13,NE,48,4.6,4.6,71,0.00,CLR,,0.19,0.0,WeatherDisplay:10.37,2013-02-04 03:23:00,
2013-02-03 22:28:00,37.8,29.2,30.13,North,5,11.5,11.5,71,0.00,CLR,,0.19,0.0,WeatherDisplay:10.37,2013-02-04 03:28:00,
2013-02-03 22:33:00,37.8,29.2,30.13,NNE,17,11.5,11.5,71,0.00,CLR,,0.19,0.0,WeatherDisplay:10.37,2013-02-04 03:33:00,
2013-02-03 22:38:00,37.9,29.0,30.13,North,5,14.0,14.0,70,0.00,CLR,,0.19,0.0,WeatherDisplay:10.37,2013-02-04 03:38:00,
2013-02-03 22:43:00,38.2,29.3,30.12,North,5,5.8,5.8,70,0.00,CLR,,0.19,0.0,WeatherDisplay:10.37,2013-02-04 03:43:00,
2013-02-03 22:48:00,38.0,29.1,30.13,NNE,32,10.0,10.0,70,0.00,CLR,,0.19,0.0,WeatherDisplay:10.37,2013-02-04 03:48:00,
2013-02-03 22:53:00,38.2,29.3,30.13,North,350,4.6,4.6,70,0.00,CLR,,0.19,0.0,WeatherDisplay:10.37,2013-02-04 03:53:00,
2013-02-03 22:58:00,37.9,29.0,30.13,NNW,327,15.0,15.0,70,0.00,CLR,,0.19,0.0,WeatherDisplay:10.37,2013-02-04 03:58:00,
2013-02-03 23:03:00,37.7,28.8,30.13,NNE,13,11.5,11.5,70,0.00,CLR,,0.19,0.0,WeatherDisplay:10.37,2013-02-04 04:03:00,
2013-02-03 23:08:00,37.4,28.9,30.13,NNE,17,8.1,8.1,71,0.00,CLR,,0.19,0.0,WeatherDisplay:10.37,2013-02-04 04:08:00,
2013-02-03 23:13:00,37.1,28.6,30.14,NE,38,8.1,8.1,71,0.00,CLR,,0.19,0.0,WeatherDisplay:10.37,2013-02-04 04:13:00,
2013-02-03 23:18:00,36.8,28.6,30.14,NNE,19,6.9,6.9,72,0.00,CLR,,0.19,0.0,WeatherDisplay:10.37,2013-02-04 04:18:00,
2013-02-03 23:23:00,36.5,28.3,30.14,NNE,17,11.5,11.5,72,0.00,CLR,,0.19,0.0,WeatherDisplay:10.37,2013-02-04 04:23:00,
2013-02-03 23:28:00,36.6,28.4,30.14,North,360,12.7,12.7,72,0.00,CLR,,0.19,0.0,WeatherDisplay:10.37,2013-02-04 04:28:00,
2013-02-03 23:33:00,36.5,29.7,30.14,North,9,11.5,11.5,76,0.00,CLR,,0.19,0.0,WeatherDisplay:10.37,2013-02-04 04:33:00,
2013-02-03 23:38:00,36.3,28.1,30.14,NNE,13,11.5,11.5,72,0.00,CLR,,0.19,0.0,WeatherDisplay:10.37,2013-02-04 04:38:00,
2013-02-03 23:43:00,36.1,27.9,30.14,NNW,344,20.7,20.7,72,0.00,CLR,,0.19,0.0,WeatherDisplay:10.37,2013-02-04 04:43:00,
2013-02-03 23:48:00,36.0,28.2,30.14,North,9,15.0,15.0,73,0.00,CLR,,0.19,0.0,WeatherDisplay:10.37,2013-02-04 04:48:00,
2013-02-03 23:53:00,36.1,27.9,30.14,North,360,19.6,19.6,72,0.00,CLR,,0.19,0.0,WeatherDisplay:10.37,2013-02-04 04:53:00,
2013-02-03 23:58:00,36.2,27.7,30.14,North,355,23.0,23.0,71,0.00,CLR,,0.19,0.0,WeatherDisplay:10.37,2013-02-04 04:58:00,